sensor_id;sensor_type;location;lat;lon;timestamp;P1;durP1;ratioP1;P2;durP2;ratioP2
67902;SDS011;54708;43.612;1.568;2023-07-31T00:01:25;7.30;;;3.83;;
67902;SDS011;54708;43.612;1.568;2023-07-31T00:03:51;10.02;;;4.72;;
67902;SDS011;54708;43.612;1.568;2023-07-31T00:06:16;6.05;;;4.10;;
67902;SDS011;54708;43.612;1.568;2023-07-31T00:08:41;10.25;;;4.80;;
67902;SDS011;54708;43.612;1.568;2023-07-31T00:11:07;6.05;;;3.83;;
67902;SDS011;54708;43.612;1.568;2023-07-31T00:13:32;8.00;;;3.75;;
67902;SDS011;54708;43.612;1.568;2023-07-31T00:15:57;5.70;;;3.25;;
67902;SDS011;54708;43.612;1.568;2023-07-31T00:18:24;5.60;;;3.67;;
67902;SDS011;54708;43.612;1.568;2023-07-31T00:20:49;8.57;;;4.35;;
67902;SDS011;54708;43.612;1.568;2023-07-31T00:23:14;7.20;;;3.45;;
67902;SDS011;54708;43.612;1.568;2023-07-31T00:25:40;7.22;;;3.90;;
67902;SDS011;54708;43.612;1.568;2023-07-31T00:28:05;6.78;;;3.70;;
67902;SDS011;54708;43.612;1.568;2023-07-31T00:30:30;5.53;;;3.45;;
67902;SDS011;54708;43.612;1.568;2023-07-31T00:32:56;7.97;;;4.20;;
67902;SDS011;54708;43.612;1.568;2023-07-31T00:35:21;6.95;;;3.78;;
67902;SDS011;54708;43.612;1.568;2023-07-31T00:37:47;11.73;;;4.13;;
67902;SDS011;54708;43.612;1.568;2023-07-31T00:40:12;8.02;;;3.80;;
67902;SDS011;54708;43.612;1.568;2023-07-31T00:42:38;5.60;;;3.47;;
67902;SDS011;54708;43.612;1.568;2023-07-31T00:45:04;7.97;;;4.38;;
67902;SDS011;54708;43.612;1.568;2023-07-31T00:47:30;8.43;;;4.35;;
67902;SDS011;54708;43.612;1.568;2023-07-31T00:49:55;11.23;;;4.68;;
67902;SDS011;54708;43.612;1.568;2023-07-31T00:52:20;9.38;;;4.30;;
67902;SDS011;54708;43.612;1.568;2023-07-31T00:54:46;9.63;;;4.22;;
67902;SDS011;54708;43.612;1.568;2023-07-31T00:57:11;6.18;;;3.50;;
67902;SDS011;54708;43.612;1.568;2023-07-31T00:59:37;11.75;;;3.70;;
67902;SDS011;54708;43.612;1.568;2023-07-31T01:02:02;6.80;;;3.13;;
67902;SDS011;54708;43.612;1.568;2023-07-31T01:04:28;6.07;;;4.05;;
67902;SDS011;54708;43.612;1.568;2023-07-31T01:06:56;12.57;;;5.25;;
67902;SDS011;54708;43.612;1.568;2023-07-31T01:10:02;9.00;;;4.57;;
67902;SDS011;54708;43.612;1.568;2023-07-31T01:12:20;11.13;;;4.35;;
67902;SDS011;54708;43.612;1.568;2023-07-31T01:17:31;7.38;;;3.70;;
67902;SDS011;54708;43.612;1.568;2023-07-31T01:19:58;6.88;;;4.15;;
67902;SDS011;54708;43.612;1.568;2023-07-31T01:25:24;6.53;;;4.10;;
67902;SDS011;54708;43.612;1.568;2023-07-31T01:28:07;6.13;;;3.50;;
67902;SDS011;54708;43.612;1.568;2023-07-31T01:30:37;5.60;;;3.50;;
67902;SDS011;54708;43.612;1.568;2023-07-31T01:33:08;4.97;;;3.25;;
67902;SDS011;54708;43.612;1.568;2023-07-31T01:35:34;7.40;;;3.55;;
67902;SDS011;54708;43.612;1.568;2023-07-31T01:38:00;6.53;;;3.95;;
67902;SDS011;54708;43.612;1.568;2023-07-31T01:40:26;5.63;;;3.47;;
67902;SDS011;54708;43.612;1.568;2023-07-31T01:42:51;8.63;;;3.55;;
67902;SDS011;54708;43.612;1.568;2023-07-31T01:45:16;6.68;;;3.83;;
67902;SDS011;54708;43.612;1.568;2023-07-31T01:47:42;11.32;;;4.53;;
67902;SDS011;54708;43.612;1.568;2023-07-31T01:50:07;9.65;;;4.03;;
67902;SDS011;54708;43.612;1.568;2023-07-31T01:52:33;8.82;;;3.97;;
67902;SDS011;54708;43.612;1.568;2023-07-31T01:54:58;10.38;;;3.40;;
67902;SDS011;54708;43.612;1.568;2023-07-31T01:57:24;7.68;;;3.58;;
67902;SDS011;54708;43.612;1.568;2023-07-31T01:59:49;5.75;;;3.88;;
67902;SDS011;54708;43.612;1.568;2023-07-31T02:02:15;7.75;;;3.47;;
67902;SDS011;54708;43.612;1.568;2023-07-31T02:04:40;9.77;;;3.65;;
67902;SDS011;54708;43.612;1.568;2023-07-31T02:07:06;4.70;;;3.42;;
67902;SDS011;54708;43.612;1.568;2023-07-31T02:09:31;7.72;;;3.85;;
67902;SDS011;54708;43.612;1.568;2023-07-31T02:11:57;6.20;;;3.30;;
67902;SDS011;54708;43.612;1.568;2023-07-31T02:14:22;9.48;;;3.17;;
67902;SDS011;54708;43.612;1.568;2023-07-31T02:16:47;6.85;;;3.58;;
67902;SDS011;54708;43.612;1.568;2023-07-31T02:19:13;6.03;;;3.63;;
67902;SDS011;54708;43.612;1.568;2023-07-31T02:21:38;10.27;;;4.32;;
67902;SDS011;54708;43.612;1.568;2023-07-31T02:24:04;7.25;;;3.88;;
67902;SDS011;54708;43.612;1.568;2023-07-31T02:26:29;10.55;;;3.65;;
67902;SDS011;54708;43.612;1.568;2023-07-31T02:28:55;10.63;;;3.72;;
67902;SDS011;54708;43.612;1.568;2023-07-31T02:31:20;6.55;;;3.95;;
67902;SDS011;54708;43.612;1.568;2023-07-31T02:33:45;7.13;;;3.67;;
67902;SDS011;54708;43.612;1.568;2023-07-31T02:36:11;9.80;;;3.53;;
67902;SDS011;54708;43.612;1.568;2023-07-31T02:38:36;5.47;;;3.28;;
67902;SDS011;54708;43.612;1.568;2023-07-31T02:41:01;9.18;;;3.88;;
67902;SDS011;54708;43.612;1.568;2023-07-31T02:43:27;5.22;;;3.22;;
67902;SDS011;54708;43.612;1.568;2023-07-31T02:45:52;11.25;;;4.47;;
67902;SDS011;54708;43.612;1.568;2023-07-31T02:48:18;9.20;;;3.55;;
67902;SDS011;54708;43.612;1.568;2023-07-31T02:50:44;10.68;;;3.65;;
67902;SDS011;54708;43.612;1.568;2023-07-31T02:53:10;9.05;;;3.97;;
67902;SDS011;54708;43.612;1.568;2023-07-31T02:55:35;11.30;;;4.15;;
67902;SDS011;54708;43.612;1.568;2023-07-31T02:58:00;5.32;;;3.20;;
67902;SDS011;54708;43.612;1.568;2023-07-31T03:00:26;5.05;;;3.78;;
67902;SDS011;54708;43.612;1.568;2023-07-31T03:02:51;6.95;;;3.75;;
67902;SDS011;54708;43.612;1.568;2023-07-31T03:05:17;11.93;;;4.32;;
67902;SDS011;54708;43.612;1.568;2023-07-31T03:07:42;7.95;;;4.40;;
67902;SDS011;54708;43.612;1.568;2023-07-31T03:10:07;4.22;;;3.30;;
67902;SDS011;54708;43.612;1.568;2023-07-31T03:12:33;6.00;;;3.58;;
67902;SDS011;54708;43.612;1.568;2023-07-31T03:14:58;7.57;;;3.50;;
67902;SDS011;54708;43.612;1.568;2023-07-31T03:17:24;11.93;;;4.72;;
67902;SDS011;54708;43.612;1.568;2023-07-31T03:19:49;6.35;;;3.88;;
67902;SDS011;54708;43.612;1.568;2023-07-31T03:22:15;8.90;;;4.03;;
67902;SDS011;54708;43.612;1.568;2023-07-31T03:24:40;10.27;;;4.78;;
67902;SDS011;54708;43.612;1.568;2023-07-31T03:27:05;11.60;;;4.00;;
67902;SDS011;54708;43.612;1.568;2023-07-31T03:29:31;5.30;;;3.50;;
67902;SDS011;54708;43.612;1.568;2023-07-31T03:31:56;6.93;;;4.07;;
67902;SDS011;54708;43.612;1.568;2023-07-31T03:34:22;7.03;;;4.30;;
67902;SDS011;54708;43.612;1.568;2023-07-31T03:36:48;8.30;;;4.07;;
67902;SDS011;54708;43.612;1.568;2023-07-31T03:39:13;5.35;;;3.17;;
67902;SDS011;54708;43.612;1.568;2023-07-31T03:41:38;6.80;;;3.53;;
67902;SDS011;54708;43.612;1.568;2023-07-31T03:44:04;7.30;;;3.75;;
67902;SDS011;54708;43.612;1.568;2023-07-31T03:46:29;7.28;;;4.68;;
67902;SDS011;54708;43.612;1.568;2023-07-31T03:48:55;10.43;;;3.70;;
67902;SDS011;54708;43.612;1.568;2023-07-31T03:51:20;8.55;;;4.50;;
67902;SDS011;54708;43.612;1.568;2023-07-31T03:53:45;6.03;;;3.65;;
67902;SDS011;54708;43.612;1.568;2023-07-31T03:56:11;9.20;;;3.92;;
67902;SDS011;54708;43.612;1.568;2023-07-31T03:58:36;5.82;;;3.67;;
67902;SDS011;54708;43.612;1.568;2023-07-31T04:01:02;6.93;;;4.38;;
67902;SDS011;54708;43.612;1.568;2023-07-31T04:03:28;5.50;;;3.60;;
67902;SDS011;54708;43.612;1.568;2023-07-31T04:05:54;8.30;;;3.78;;
67902;SDS011;54708;43.612;1.568;2023-07-31T04:08:21;6.10;;;4.13;;
67902;SDS011;54708;43.612;1.568;2023-07-31T04:10:46;7.57;;;3.72;;
67902;SDS011;54708;43.612;1.568;2023-07-31T04:13:12;7.72;;;3.85;;
67902;SDS011;54708;43.612;1.568;2023-07-31T04:15:37;7.55;;;4.35;;
67902;SDS011;54708;43.612;1.568;2023-07-31T04:18:03;11.65;;;4.57;;
67902;SDS011;54708;43.612;1.568;2023-07-31T04:20:29;9.65;;;4.32;;
67902;SDS011;54708;43.612;1.568;2023-07-31T04:22:54;7.72;;;3.85;;
67902;SDS011;54708;43.612;1.568;2023-07-31T04:25:20;6.20;;;4.25;;
67902;SDS011;54708;43.612;1.568;2023-07-31T04:27:45;10.23;;;4.95;;
67902;SDS011;54708;43.612;1.568;2023-07-31T04:30:10;10.15;;;4.35;;
67902;SDS011;54708;43.612;1.568;2023-07-31T04:32:36;7.28;;;4.30;;
67902;SDS011;54708;43.612;1.568;2023-07-31T04:35:01;8.57;;;4.18;;
67902;SDS011;54708;43.612;1.568;2023-07-31T04:37:27;6.80;;;4.28;;
67902;SDS011;54708;43.612;1.568;2023-07-31T04:39:52;8.85;;;4.60;;
67902;SDS011;54708;43.612;1.568;2023-07-31T04:42:18;11.23;;;4.55;;
67902;SDS011;54708;43.612;1.568;2023-07-31T04:44:44;8.60;;;4.35;;
67902;SDS011;54708;43.612;1.568;2023-07-31T04:47:09;9.07;;;4.82;;
67902;SDS011;54708;43.612;1.568;2023-07-31T04:49:35;8.00;;;4.55;;
67902;SDS011;54708;43.612;1.568;2023-07-31T04:52:00;6.90;;;4.18;;
67902;SDS011;54708;43.612;1.568;2023-07-31T04:54:26;8.73;;;4.60;;
67902;SDS011;54708;43.612;1.568;2023-07-31T04:56:51;13.23;;;5.25;;
67902;SDS011;54708;43.612;1.568;2023-07-31T04:59:17;7.50;;;4.13;;
67902;SDS011;54708;43.612;1.568;2023-07-31T05:01:43;6.45;;;4.80;;
67902;SDS011;54708;43.612;1.568;2023-07-31T05:04:10;16.00;;;5.07;;
67902;SDS011;54708;43.612;1.568;2023-07-31T05:06:37;11.48;;;5.38;;
67902;SDS011;54708;43.612;1.568;2023-07-31T05:09:03;6.97;;;4.45;;
67902;SDS011;54708;43.612;1.568;2023-07-31T05:11:28;15.70;;;5.40;;
67902;SDS011;54708;43.612;1.568;2023-07-31T05:13:53;7.32;;;4.35;;
67902;SDS011;54708;43.612;1.568;2023-07-31T05:16:19;10.05;;;5.40;;
67902;SDS011;54708;43.612;1.568;2023-07-31T05:18:44;12.15;;;5.00;;
67902;SDS011;54708;43.612;1.568;2023-07-31T05:21:09;9.63;;;5.30;;
67902;SDS011;54708;43.612;1.568;2023-07-31T05:23:35;10.32;;;4.35;;
67902;SDS011;54708;43.612;1.568;2023-07-31T05:26:04;9.00;;;4.95;;
67902;SDS011;54708;43.612;1.568;2023-07-31T05:28:30;9.50;;;4.20;;
67902;SDS011;54708;43.612;1.568;2023-07-31T05:30:59;9.55;;;5.68;;
67902;SDS011;54708;43.612;1.568;2023-07-31T05:33:25;8.75;;;4.40;;
67902;SDS011;54708;43.612;1.568;2023-07-31T05:35:51;6.63;;;4.05;;
67902;SDS011;54708;43.612;1.568;2023-07-31T05:38:16;10.65;;;4.97;;
67902;SDS011;54708;43.612;1.568;2023-07-31T05:40:42;14.38;;;5.20;;
67902;SDS011;54708;43.612;1.568;2023-07-31T05:43:07;11.52;;;5.93;;
67902;SDS011;54708;43.612;1.568;2023-07-31T05:45:33;9.90;;;4.18;;
67902;SDS011;54708;43.612;1.568;2023-07-31T05:47:58;9.30;;;4.40;;
67902;SDS011;54708;43.612;1.568;2023-07-31T05:50:24;12.93;;;4.85;;
67902;SDS011;54708;43.612;1.568;2023-07-31T05:52:49;7.88;;;4.85;;
67902;SDS011;54708;43.612;1.568;2023-07-31T05:55:15;8.75;;;4.72;;
67902;SDS011;54708;43.612;1.568;2023-07-31T05:57:41;13.43;;;4.68;;
67902;SDS011;54708;43.612;1.568;2023-07-31T06:00:07;7.00;;;4.72;;
67902;SDS011;54708;43.612;1.568;2023-07-31T06:02:32;9.02;;;4.30;;
67902;SDS011;54708;43.612;1.568;2023-07-31T06:05:01;7.15;;;4.72;;
67902;SDS011;54708;43.612;1.568;2023-07-31T06:07:28;8.48;;;4.18;;
67902;SDS011;54708;43.612;1.568;2023-07-31T06:09:54;3.78;;;3.25;;
67902;SDS011;54708;43.612;1.568;2023-07-31T06:12:20;8.48;;;3.88;;
67902;SDS011;54708;43.612;1.568;2023-07-31T06:14:45;9.57;;;4.40;;
67902;SDS011;54708;43.612;1.568;2023-07-31T06:17:11;11.40;;;4.10;;
67902;SDS011;54708;43.612;1.568;2023-07-31T06:19:36;12.82;;;4.85;;
67902;SDS011;54708;43.612;1.568;2023-07-31T06:22:01;11.70;;;4.43;;
67902;SDS011;54708;43.612;1.568;2023-07-31T06:24:27;9.43;;;3.78;;
67902;SDS011;54708;43.612;1.568;2023-07-31T06:26:53;11.10;;;4.28;;
67902;SDS011;54708;43.612;1.568;2023-07-31T06:29:18;14.60;;;4.40;;
67902;SDS011;54708;43.612;1.568;2023-07-31T06:31:44;5.82;;;4.40;;
67902;SDS011;54708;43.612;1.568;2023-07-31T06:34:09;8.57;;;4.20;;
67902;SDS011;54708;43.612;1.568;2023-07-31T06:36:35;7.15;;;4.35;;
67902;SDS011;54708;43.612;1.568;2023-07-31T06:39:00;11.48;;;4.93;;
67902;SDS011;54708;43.612;1.568;2023-07-31T06:41:26;8.23;;;4.70;;
67902;SDS011;54708;43.612;1.568;2023-07-31T06:43:51;8.13;;;3.83;;
67902;SDS011;54708;43.612;1.568;2023-07-31T06:46:16;10.05;;;5.03;;
67902;SDS011;54708;43.612;1.568;2023-07-31T06:48:42;9.10;;;4.38;;
67902;SDS011;54708;43.612;1.568;2023-07-31T06:51:07;14.57;;;4.25;;
67902;SDS011;54708;43.612;1.568;2023-07-31T06:53:32;8.40;;;4.03;;
67902;SDS011;54708;43.612;1.568;2023-07-31T06:55:58;7.47;;;4.07;;
67902;SDS011;54708;43.612;1.568;2023-07-31T06:58:23;15.23;;;6.07;;
67902;SDS011;54708;43.612;1.568;2023-07-31T07:00:48;9.43;;;3.72;;
67902;SDS011;54708;43.612;1.568;2023-07-31T07:03:15;8.35;;;3.90;;
67902;SDS011;54708;43.612;1.568;2023-07-31T07:05:42;14.90;;;5.13;;
67902;SDS011;54708;43.612;1.568;2023-07-31T07:08:08;8.45;;;4.20;;
67902;SDS011;54708;43.612;1.568;2023-07-31T07:10:33;12.75;;;4.20;;
67902;SDS011;54708;43.612;1.568;2023-07-31T07:12:58;8.45;;;3.55;;
67902;SDS011;54708;43.612;1.568;2023-07-31T07:15:24;7.88;;;3.83;;
67902;SDS011;54708;43.612;1.568;2023-07-31T07:17:49;10.23;;;4.55;;
67902;SDS011;54708;43.612;1.568;2023-07-31T07:20:15;7.80;;;4.47;;
67902;SDS011;54708;43.612;1.568;2023-07-31T07:22:40;7.28;;;3.97;;
67902;SDS011;54708;43.612;1.568;2023-07-31T07:25:08;10.05;;;5.00;;
67902;SDS011;54708;43.612;1.568;2023-07-31T07:27:34;19.05;;;4.75;;
67902;SDS011;54708;43.612;1.568;2023-07-31T07:29:59;11.23;;;4.63;;
67902;SDS011;54708;43.612;1.568;2023-07-31T07:32:24;11.20;;;3.45;;
67902;SDS011;54708;43.612;1.568;2023-07-31T07:34:50;8.43;;;4.22;;
67902;SDS011;54708;43.612;1.568;2023-07-31T07:37:15;9.40;;;3.75;;
67902;SDS011;54708;43.612;1.568;2023-07-31T07:39:41;13.98;;;4.85;;
67902;SDS011;54708;43.612;1.568;2023-07-31T07:42:06;11.73;;;4.43;;
67902;SDS011;54708;43.612;1.568;2023-07-31T07:44:32;7.47;;;3.83;;
67902;SDS011;54708;43.612;1.568;2023-07-31T07:46:57;10.18;;;3.75;;
67902;SDS011;54708;43.612;1.568;2023-07-31T07:49:22;8.70;;;3.40;;
67902;SDS011;54708;43.612;1.568;2023-07-31T07:51:48;10.98;;;4.00;;
67902;SDS011;54708;43.612;1.568;2023-07-31T07:54:14;11.50;;;4.43;;
67902;SDS011;54708;43.612;1.568;2023-07-31T07:56:41;7.22;;;4.03;;
67902;SDS011;54708;43.612;1.568;2023-07-31T07:59:07;6.72;;;3.33;;
67902;SDS011;54708;43.612;1.568;2023-07-31T08:01:32;6.60;;;3.78;;
67902;SDS011;54708;43.612;1.568;2023-07-31T08:03:58;9.55;;;3.83;;
67902;SDS011;54708;43.612;1.568;2023-07-31T08:06:23;10.68;;;3.83;;
67902;SDS011;54708;43.612;1.568;2023-07-31T08:08:49;7.45;;;3.85;;
67902;SDS011;54708;43.612;1.568;2023-07-31T08:11:14;13.35;;;3.80;;
67902;SDS011;54708;43.612;1.568;2023-07-31T08:13:40;7.90;;;3.95;;
67902;SDS011;54708;43.612;1.568;2023-07-31T08:16:05;14.27;;;4.65;;
67902;SDS011;54708;43.612;1.568;2023-07-31T08:18:31;8.90;;;4.40;;
67902;SDS011;54708;43.612;1.568;2023-07-31T08:20:57;6.05;;;2.85;;
67902;SDS011;54708;43.612;1.568;2023-07-31T08:23:22;9.35;;;4.10;;
67902;SDS011;54708;43.612;1.568;2023-07-31T08:25:48;13.60;;;4.55;;
67902;SDS011;54708;43.612;1.568;2023-07-31T08:28:14;8.60;;;3.88;;
67902;SDS011;54708;43.612;1.568;2023-07-31T08:30:40;11.05;;;3.58;;
67902;SDS011;54708;43.612;1.568;2023-07-31T08:33:06;10.38;;;3.63;;
67902;SDS011;54708;43.612;1.568;2023-07-31T08:35:32;9.18;;;3.88;;
67902;SDS011;54708;43.612;1.568;2023-07-31T08:37:57;7.13;;;3.92;;
67902;SDS011;54708;43.612;1.568;2023-07-31T08:40:22;7.47;;;3.55;;
67902;SDS011;54708;43.612;1.568;2023-07-31T08:42:49;6.40;;;4.15;;
67902;SDS011;54708;43.612;1.568;2023-07-31T08:45:16;11.00;;;4.65;;
67902;SDS011;54708;43.612;1.568;2023-07-31T08:47:47;10.20;;;4.38;;
67902;SDS011;54708;43.612;1.568;2023-07-31T08:50:14;6.78;;;4.22;;
67902;SDS011;54708;43.612;1.568;2023-07-31T08:52:40;11.02;;;3.88;;
67902;SDS011;54708;43.612;1.568;2023-07-31T08:55:06;20.02;;;4.70;;
67902;SDS011;54708;43.612;1.568;2023-07-31T08:57:32;10.32;;;3.25;;
67902;SDS011;54708;43.612;1.568;2023-07-31T09:00:00;8.82;;;3.63;;
67902;SDS011;54708;43.612;1.568;2023-07-31T09:02:26;7.53;;;3.35;;
67902;SDS011;54708;43.612;1.568;2023-07-31T09:05:03;13.77;;;4.20;;
67902;SDS011;54708;43.612;1.568;2023-07-31T09:07:30;8.02;;;3.80;;
67902;SDS011;54708;43.612;1.568;2023-07-31T09:09:57;7.57;;;3.40;;
67902;SDS011;54708;43.612;1.568;2023-07-31T09:12:22;11.10;;;3.13;;
67902;SDS011;54708;43.612;1.568;2023-07-31T09:14:47;14.30;;;3.13;;
67902;SDS011;54708;43.612;1.568;2023-07-31T09:17:13;7.45;;;3.35;;
67902;SDS011;54708;43.612;1.568;2023-07-31T09:19:38;8.05;;;3.38;;
67902;SDS011;54708;43.612;1.568;2023-07-31T09:22:06;8.63;;;3.17;;
67902;SDS011;54708;43.612;1.568;2023-07-31T09:24:33;7.38;;;3.25;;
67902;SDS011;54708;43.612;1.568;2023-07-31T09:26:59;7.68;;;3.33;;
67902;SDS011;54708;43.612;1.568;2023-07-31T09:29:26;9.45;;;2.90;;
67902;SDS011;54708;43.612;1.568;2023-07-31T09:31:53;11.52;;;3.20;;
67902;SDS011;54708;43.612;1.568;2023-07-31T09:34:19;6.78;;;2.72;;
67902;SDS011;54708;43.612;1.568;2023-07-31T09:36:46;5.65;;;3.22;;
67902;SDS011;54708;43.612;1.568;2023-07-31T09:39:13;7.00;;;3.20;;
67902;SDS011;54708;43.612;1.568;2023-07-31T09:41:42;5.80;;;3.20;;
67902;SDS011;54708;43.612;1.568;2023-07-31T09:44:37;6.20;;;3.00;;
67902;SDS011;54708;43.612;1.568;2023-07-31T09:47:05;5.68;;;3.28;;
67902;SDS011;54708;43.612;1.568;2023-07-31T09:49:30;4.47;;;2.30;;
67902;SDS011;54708;43.612;1.568;2023-07-31T09:51:56;5.70;;;2.42;;
67902;SDS011;54708;43.612;1.568;2023-07-31T09:54:21;6.35;;;2.28;;
67902;SDS011;54708;43.612;1.568;2023-07-31T09:56:47;4.35;;;3.05;;
67902;SDS011;54708;43.612;1.568;2023-07-31T09:59:20;4.18;;;2.20;;
67902;SDS011;54708;43.612;1.568;2023-07-31T10:01:46;3.72;;;2.15;;
67902;SDS011;54708;43.612;1.568;2023-07-31T10:04:12;12.52;;;4.10;;
67902;SDS011;54708;43.612;1.568;2023-07-31T10:06:38;4.03;;;2.67;;
67902;SDS011;54708;43.612;1.568;2023-07-31T10:09:05;5.40;;;3.00;;
67902;SDS011;54708;43.612;1.568;2023-07-31T10:11:34;8.15;;;2.90;;
67902;SDS011;54708;43.612;1.568;2023-07-31T10:14:03;6.57;;;3.00;;
67902;SDS011;54708;43.612;1.568;2023-07-31T10:16:30;5.53;;;2.97;;
67902;SDS011;54708;43.612;1.568;2023-07-31T10:18:55;7.55;;;3.10;;
67902;SDS011;54708;43.612;1.568;2023-07-31T10:21:21;7.70;;;2.92;;
67902;SDS011;54708;43.612;1.568;2023-07-31T10:23:46;7.35;;;3.17;;
67902;SDS011;54708;43.612;1.568;2023-07-31T10:26:14;6.50;;;2.90;;
67902;SDS011;54708;43.612;1.568;2023-07-31T10:28:39;11.82;;;3.95;;
67902;SDS011;54708;43.612;1.568;2023-07-31T10:31:05;3.78;;;2.50;;
67902;SDS011;54708;43.612;1.568;2023-07-31T10:33:31;3.95;;;2.75;;
67902;SDS011;54708;43.612;1.568;2023-07-31T10:36:13;5.57;;;3.25;;
67902;SDS011;54708;43.612;1.568;2023-07-31T10:38:40;4.78;;;2.90;;
67902;SDS011;54708;43.612;1.568;2023-07-31T10:41:09;7.47;;;3.42;;
67902;SDS011;54708;43.612;1.568;2023-07-31T10:43:35;5.40;;;2.42;;
67902;SDS011;54708;43.612;1.568;2023-07-31T10:46:06;9.90;;;3.30;;
67902;SDS011;54708;43.612;1.568;2023-07-31T10:48:33;6.68;;;3.50;;
67902;SDS011;54708;43.612;1.568;2023-07-31T10:50:59;6.28;;;2.50;;
67902;SDS011;54708;43.612;1.568;2023-07-31T10:53:34;11.73;;;3.20;;
67902;SDS011;54708;43.612;1.568;2023-07-31T10:56:00;3.67;;;2.40;;
67902;SDS011;54708;43.612;1.568;2023-07-31T10:58:26;7.53;;;3.00;;
67902;SDS011;54708;43.612;1.568;2023-07-31T11:00:54;7.32;;;2.70;;
67902;SDS011;54708;43.612;1.568;2023-07-31T11:03:24;5.75;;;3.47;;
67902;SDS011;54708;43.612;1.568;2023-07-31T11:08:25;8.30;;;3.28;;
67902;SDS011;54708;43.612;1.568;2023-07-31T11:13:26;6.20;;;2.75;;
67902;SDS011;54708;43.612;1.568;2023-07-31T11:15:51;5.68;;;3.35;;
67902;SDS011;54708;43.612;1.568;2023-07-31T11:18:16;3.67;;;2.60;;
67902;SDS011;54708;43.612;1.568;2023-07-31T11:20:43;6.15;;;2.63;;
67902;SDS011;54708;43.612;1.568;2023-07-31T11:23:09;4.78;;;2.83;;
67902;SDS011;54708;43.612;1.568;2023-07-31T11:25:35;7.30;;;2.78;;
67902;SDS011;54708;43.612;1.568;2023-07-31T11:28:06;4.90;;;2.90;;
67902;SDS011;54708;43.612;1.568;2023-07-31T11:30:32;5.68;;;2.45;;
67902;SDS011;54708;43.612;1.568;2023-07-31T11:32:59;3.88;;;2.70;;
67902;SDS011;54708;43.612;1.568;2023-07-31T11:35:26;4.03;;;2.78;;
67902;SDS011;54708;43.612;1.568;2023-07-31T11:37:51;5.88;;;2.63;;
67902;SDS011;54708;43.612;1.568;2023-07-31T11:40:17;4.22;;;3.00;;
67902;SDS011;54708;43.612;1.568;2023-07-31T11:42:43;7.00;;;3.65;;
67902;SDS011;54708;43.612;1.568;2023-07-31T11:45:08;4.05;;;2.40;;
67902;SDS011;54708;43.612;1.568;2023-07-31T11:47:37;7.30;;;3.13;;
67902;SDS011;54708;43.612;1.568;2023-07-31T11:50:03;6.63;;;3.10;;
67902;SDS011;54708;43.612;1.568;2023-07-31T11:52:30;4.13;;;2.70;;
67902;SDS011;54708;43.612;1.568;2023-07-31T11:54:59;5.38;;;2.38;;
67902;SDS011;54708;43.612;1.568;2023-07-31T11:57:25;7.75;;;2.63;;
67902;SDS011;54708;43.612;1.568;2023-07-31T11:59:50;6.68;;;2.90;;
67902;SDS011;54708;43.612;1.568;2023-07-31T12:02:16;5.47;;;2.80;;
67902;SDS011;54708;43.612;1.568;2023-07-31T12:04:42;3.67;;;2.50;;
67902;SDS011;54708;43.612;1.568;2023-07-31T12:07:08;7.78;;;2.90;;
67902;SDS011;54708;43.612;1.568;2023-07-31T12:09:33;7.85;;;2.92;;
67902;SDS011;54708;43.612;1.568;2023-07-31T12:11:58;7.40;;;2.80;;
67902;SDS011;54708;43.612;1.568;2023-07-31T12:14:25;3.72;;;2.90;;
67902;SDS011;54708;43.612;1.568;2023-07-31T12:16:54;4.40;;;3.20;;
67902;SDS011;54708;43.612;1.568;2023-07-31T12:19:25;5.68;;;2.47;;
67902;SDS011;54708;43.612;1.568;2023-07-31T12:21:55;4.90;;;2.80;;
67902;SDS011;54708;43.612;1.568;2023-07-31T12:24:35;6.82;;;2.95;;
67902;SDS011;54708;43.612;1.568;2023-07-31T12:27:08;5.55;;;2.75;;
67902;SDS011;54708;43.612;1.568;2023-07-31T12:29:38;5.57;;;2.75;;
67902;SDS011;54708;43.612;1.568;2023-07-31T12:32:04;3.88;;;2.53;;
67902;SDS011;54708;43.612;1.568;2023-07-31T12:34:30;14.15;;;3.60;;
67902;SDS011;54708;43.612;1.568;2023-07-31T12:36:56;8.10;;;3.10;;
67902;SDS011;54708;43.612;1.568;2023-07-31T12:39:21;5.13;;;2.95;;
67902;SDS011;54708;43.612;1.568;2023-07-31T12:41:47;5.25;;;2.90;;
67902;SDS011;54708;43.612;1.568;2023-07-31T12:44:12;5.28;;;3.33;;
67902;SDS011;54708;43.612;1.568;2023-07-31T12:46:37;8.60;;;2.85;;
67902;SDS011;54708;43.612;1.568;2023-07-31T12:49:03;3.97;;;2.20;;
67902;SDS011;54708;43.612;1.568;2023-07-31T12:51:28;7.13;;;3.15;;
67902;SDS011;54708;43.612;1.568;2023-07-31T12:53:54;4.80;;;2.70;;
67902;SDS011;54708;43.612;1.568;2023-07-31T12:56:19;6.47;;;3.00;;
67902;SDS011;54708;43.612;1.568;2023-07-31T12:58:44;6.15;;;3.00;;
67902;SDS011;54708;43.612;1.568;2023-07-31T13:01:10;4.43;;;3.08;;
67902;SDS011;54708;43.612;1.568;2023-07-31T13:03:35;5.93;;;2.97;;
67902;SDS011;54708;43.612;1.568;2023-07-31T13:06:01;3.88;;;2.40;;
67902;SDS011;54708;43.612;1.568;2023-07-31T13:08:26;4.38;;;2.35;;
67902;SDS011;54708;43.612;1.568;2023-07-31T13:10:51;5.07;;;2.80;;
67902;SDS011;54708;43.612;1.568;2023-07-31T13:13:17;2.85;;;2.47;;
67902;SDS011;54708;43.612;1.568;2023-07-31T13:15:43;4.72;;;2.30;;
67902;SDS011;54708;43.612;1.568;2023-07-31T13:18:09;3.70;;;2.10;;
67902;SDS011;54708;43.612;1.568;2023-07-31T13:20:34;5.40;;;2.78;;
67902;SDS011;54708;43.612;1.568;2023-07-31T13:22:59;6.22;;;2.42;;
67902;SDS011;54708;43.612;1.568;2023-07-31T13:25:25;6.43;;;3.38;;
67902;SDS011;54708;43.612;1.568;2023-07-31T13:27:50;6.40;;;2.60;;
67902;SDS011;54708;43.612;1.568;2023-07-31T13:30:15;8.13;;;3.00;;
67902;SDS011;54708;43.612;1.568;2023-07-31T13:32:41;4.35;;;2.35;;
67902;SDS011;54708;43.612;1.568;2023-07-31T13:35:06;6.57;;;2.92;;
67902;SDS011;54708;43.612;1.568;2023-07-31T13:37:33;2.90;;;2.55;;
67902;SDS011;54708;43.612;1.568;2023-07-31T13:39:58;4.68;;;2.78;;
67902;SDS011;54708;43.612;1.568;2023-07-31T13:42:24;4.80;;;2.42;;
67902;SDS011;54708;43.612;1.568;2023-07-31T13:44:49;6.57;;;2.58;;
67902;SDS011;54708;43.612;1.568;2023-07-31T13:47:14;5.03;;;2.55;;
67902;SDS011;54708;43.612;1.568;2023-07-31T13:49:40;2.65;;;2.20;;
67902;SDS011;54708;43.612;1.568;2023-07-31T13:52:06;6.72;;;3.35;;
67902;SDS011;54708;43.612;1.568;2023-07-31T13:54:32;5.03;;;2.83;;
67902;SDS011;54708;43.612;1.568;2023-07-31T13:56:57;5.03;;;2.40;;
67902;SDS011;54708;43.612;1.568;2023-07-31T13:59:23;4.25;;;2.67;;
67902;SDS011;54708;43.612;1.568;2023-07-31T14:01:48;3.33;;;2.13;;
67902;SDS011;54708;43.612;1.568;2023-07-31T14:04:14;5.32;;;2.90;;
67902;SDS011;54708;43.612;1.568;2023-07-31T14:06:40;3.85;;;2.45;;
67902;SDS011;54708;43.612;1.568;2023-07-31T14:09:05;4.40;;;2.75;;
67902;SDS011;54708;43.612;1.568;2023-07-31T14:11:31;6.95;;;3.13;;
67902;SDS011;54708;43.612;1.568;2023-07-31T14:13:57;4.65;;;2.72;;
67902;SDS011;54708;43.612;1.568;2023-07-31T14:16:22;5.68;;;2.40;;
67902;SDS011;54708;43.612;1.568;2023-07-31T14:18:48;3.17;;;2.67;;
67902;SDS011;54708;43.612;1.568;2023-07-31T14:21:13;7.32;;;2.85;;
67902;SDS011;54708;43.612;1.568;2023-07-31T14:23:39;5.63;;;3.30;;
67902;SDS011;54708;43.612;1.568;2023-07-31T14:26:05;5.95;;;2.53;;
67902;SDS011;54708;43.612;1.568;2023-07-31T14:28:30;5.20;;;2.70;;
67902;SDS011;54708;43.612;1.568;2023-07-31T14:30:56;7.20;;;2.90;;
67902;SDS011;54708;43.612;1.568;2023-07-31T14:33:21;5.15;;;2.95;;
67902;SDS011;54708;43.612;1.568;2023-07-31T14:35:46;6.35;;;2.67;;
67902;SDS011;54708;43.612;1.568;2023-07-31T14:38:12;6.13;;;3.35;;
67902;SDS011;54708;43.612;1.568;2023-07-31T14:40:37;4.63;;;3.08;;
67902;SDS011;54708;43.612;1.568;2023-07-31T14:43:03;8.25;;;3.10;;
67902;SDS011;54708;43.612;1.568;2023-07-31T14:45:29;4.32;;;2.90;;
67902;SDS011;54708;43.612;1.568;2023-07-31T14:47:54;4.55;;;2.72;;
67902;SDS011;54708;43.612;1.568;2023-07-31T14:50:20;3.95;;;2.90;;